Time;durP1;ratioP1;P1;durP2;ratioP2;P2;SDS_P1;SDS_P2;PMS_P1;PMS_P2;Temp;Humidity;BMP_temperature;BMP_pressure;BME280_temperature;BME280_humidity;BME280_pressure;Samples;Min_cycle;Max_cycle;Signal;HPM_P1;HPM_P2
2022/10/07 00:00:22;;;;;;;2.05;1.85;;;;;;;11.28;84.45;97978.15;1721387;81;20931;-85
2022/10/07 00:02:50;;;;;;;2.40;1.77;;;;;;;11.24;84.75;97975.03;1746624;82;20978;-85
2022/10/07 00:05:16;;;;;;;1.85;1.60;;;;;;;11.23;84.78;97981.20;1747219;81;21014;-84
2022/10/07 00:07:41;;;;;;;4.10;1.87;;;;;;;11.20;84.91;97980.16;1736175;81;21404;-84
2022/10/07 00:10:08;;;;;;;5.95;2.10;;;;;;;11.20;85.14;97976.27;1724170;82;21424;-84
2022/10/07 00:12:34;;;;;;;3.90;2.00;;;;;;;11.21;85.35;97975.78;1718803;83;21401;-85
2022/10/07 00:14:59;;;;;;;4.95;2.30;;;;;;;11.23;85.57;97975.99;1721808;82;20982;-85
2022/10/07 00:17:25;;;;;;;8.33;2.15;;;;;;;11.24;85.60;97975.03;1726140;83;21010;-83
2022/10/07 00:19:51;;;;;;;5.00;2.65;;;;;;;11.23;85.78;97975.17;1692598;82;21288;-84
2022/10/07 00:22:17;;;;;;;4.12;2.27;;;;;;;11.17;85.88;97970.05;1722985;82;21015;-85
2022/10/07 00:24:43;;;;;;;3.42;2.20;;;;;;;11.13;86.09;97968.23;1724607;82;21459;-84
2022/10/07 00:27:08;;;;;;;4.37;1.92;;;;;;;11.09;86.32;97966.90;1729416;82;21031;-85
2022/10/07 00:29:34;;;;;;;3.08;2.22;;;;;;;11.05;86.38;97962.11;1726894;82;21022;-84
2022/10/07 00:32:00;;;;;;;2.70;2.00;;;;;;;11.00;86.41;97963.04;1719373;82;20951;-84
2022/10/07 00:34:25;;;;;;;3.02;2.15;;;;;;;10.97;86.55;97956.84;1727829;83;21365;-84
2022/10/07 00:36:51;;;;;;;3.25;2.33;;;;;;;10.96;86.74;97954.72;1724557;83;21007;-84
2022/10/07 00:39:17;;;;;;;3.65;2.33;;;;;;;10.95;86.54;97950.97;1730814;83;20962;-84
2022/10/07 00:41:49;;;;;;;5.22;2.55;;;;;;;10.93;86.67;97955.50;1723499;82;21031;-84
2022/10/07 00:44:36;;;;;;;5.65;2.62;;;;;;;10.89;86.80;97950.23;1730760;82;20998;-84
2022/10/07 00:47:28;;;;;;;2.90;2.15;;;;;;;10.86;86.98;97950.52;1731505;82;20987;-85
2022/10/07 00:50:03;;;;;;;;;;;;;;;10.82;87.07;97948.70;1722466;82;20938;-86
2022/10/07 00:52:32;;;;;;;3.80;2.00;;;;;;;10.77;87.34;97942.64;1726369;83;20128;-86
2022/10/07 00:55:00;;;;;;;3.62;2.10;;;;;;;10.74;87.65;97940.34;1722525;82;21075;-86
2022/10/07 00:57:26;;;;;;;4.97;2.22;;;;;;;10.74;87.88;97930.42;1731304;83;20951;-86
2022/10/07 00:59:54;;;;;;;3.12;1.90;;;;;;;10.77;88.10;97934.84;1731538;82;21345;-85
2022/10/07 01:02:21;;;;;;;3.02;2.20;;;;;;;10.80;87.98;97929.83;1706705;83;20994;-86
2022/10/07 01:04:47;;;;;;;4.15;2.70;;;;;;;10.83;87.89;97925.63;1729152;83;20969;-86
2022/10/07 01:07:16;;;;;;;4.00;2.70;;;;;;;10.82;87.87;97925.30;1719790;82;21065;-86
2022/10/07 01:09:41;;;;;;;4.12;2.42;;;;;;;10.77;87.93;97916.64;1718562;82;20998;-86
2022/10/07 01:12:34;;;;;;;5.72;2.72;;;;;;;10.75;88.09;97916.45;1719255;82;21317;-86
2022/10/07 01:15:14;;;;;;;2.45;1.90;;;;;;;10.75;88.10;97911.26;1707837;83;20954;-85
2022/10/07 01:17:48;;;;;;;5.62;2.10;;;;;;;10.73;88.03;97911.86;1727738;82;21039;-86
2022/10/07 01:20:35;;;;;;;2.77;1.55;;;;;;;10.71;88.09;97913.30;1723422;82;21421;-86
2022/10/07 01:23:27;;;;;;;3.33;2.15;;;;;;;10.67;87.77;97910.66;1721005;82;21271;-85
2022/10/07 01:26:51;;;;;;;2.35;1.40;;;;;;;10.62;87.59;97906.88;1726182;83;21027;-86
2022/10/07 01:29:22;;;;;;;1.90;1.30;;;;;;;10.56;87.79;97899.16;1724178;82;21330;-86
2022/10/07 01:32:08;;;;;;;2.20;1.20;;;;;;;10.52;87.47;97900.41;1722297;83;20963;-86
2022/10/07 01:34:34;;;;;;;2.17;1.75;;;;;;;10.50;87.36;97899.26;1731627;82;20947;-85
2022/10/07 01:37:00;;;;;;;2.83;1.82;;;;;;;10.49;87.53;97898.10;1725799;82;21345;-85
2022/10/07 01:39:31;;;;;;;2.33;1.90;;;;;;;10.45;87.69;97895.46;1729978;83;20971;-85
2022/10/07 01:41:56;;;;;;;3.15;2.30;;;;;;;10.42;87.61;97889.27;1724703;82;21043;-85
2022/10/07 01:44:25;;;;;;;2.50;2.10;;;;;;;10.38;87.81;97886.11;1731594;82;21373;-85
2022/10/07 01:46:50;;;;;;;4.08;2.10;;;;;;;10.39;87.73;97886.44;1727954;82;21391;-85
2022/10/07 01:49:15;;;;;;;3.98;2.05;;;;;;;10.39;87.70;97884.33;1718827;82;20981;-86
2022/10/07 01:51:41;;;;;;;2.90;1.82;;;;;;;10.40;87.79;97883.36;1718846;82;21023;-84
2022/10/07 01:54:24;;;;;;;2.72;2.12;;;;;;;10.40;87.88;97884.18;1724980;83;20994;-86
2022/10/07 01:57:04;;;;;;;3.40;2.75;;;;;;;10.42;88.20;97883.58;1731558;82;20999;-85
2022/10/07 01:59:38;;;;;;;4.37;2.77;;;;;;;10.42;88.46;97884.06;1715875;82;21011;-85
2022/10/07 02:02:51;;;;;;;3.77;2.90;;;;;;;10.41;88.96;97888.89;1728826;81;21432;-85
2022/10/07 02:05:39;;;;;;;4.72;2.50;;;;;;;10.38;89.28;97883.98;1712373;83;21383;-85
2022/10/07 02:08:32;;;;;;;3.85;2.37;;;;;;;10.32;89.59;97881.50;1731799;81;21035;-85
2022/10/07 02:11:18;;;;;;;4.05;2.33;;;;;;;10.27;89.59;97881.12;1745782;81;20995;-85
2022/10/07 02:14:18;;;;;;;4.70;2.42;;;;;;;10.23;89.73;97883.16;1747505;81;20967;-85
2022/10/07 02:16:47;;;;;;;3.62;2.45;;;;;;;10.21;89.90;97876.47;1769019;80;21397;-84
2022/10/07 02:19:22;;;;;;;4.03;3.05;;;;;;;10.18;90.11;97872.84;1745811;82;20975;-85
2022/10/07 02:21:50;;;;;;;5.08;2.70;;;;;;;10.14;90.12;97862.40;1699066;82;20927;-85
2022/10/07 02:24:16;;;;;;;3.77;2.60;;;;;;;10.13;90.28;97864.66;1746969;82;21034;-84
2022/10/07 02:26:42;;;;;;;6.55;2.98;;;;;;;10.12;90.27;97858.65;1768336;81;20959;-85
2022/10/07 02:29:09;;;;;;;7.03;3.15;;;;;;;10.13;90.46;97855.57;1746133;82;21064;-85
2022/10/07 02:31:34;;;;;;;4.50;3.00;;;;;;;10.14;90.38;97858.50;1721281;81;20986;-85
2022/10/07 02:34:02;;;;;;;4.28;3.15;;;;;;;10.13;90.45;97860.28;1764435;81;20970;-85
2022/10/07 02:36:34;;;;;;;3.45;2.87;;;;;;;10.12;90.66;97856.53;1745799;81;20958;-85
2022/10/07 02:39:00;;;;;;;5.05;3.25;;;;;;;10.13;90.82;97854.27;1746230;81;21081;-85
2022/10/07 02:41:44;;;;;;;4.65;3.10;;;;;;;10.12;91.07;97855.23;1748572;81;20957;-84
2022/10/07 02:44:24;;;;;;;5.90;3.40;;;;;;;10.10;91.12;97857.98;1745231;81;21034;-85
2022/10/07 02:47:18;;;;;;;5.45;3.65;;;;;;;10.08;91.22;97852.08;1725092;81;20973;-85
2022/10/07 02:49:47;;;;;;;5.45;3.62;;;;;;;10.08;91.35;97853.38;1746263;81;20994;-85
2022/10/07 02:52:17;;;;;;;4.45;3.22;;;;;;;10.07;91.55;97850.45;1746990;81;20955;-85
2022/10/07 02:55:07;;;;;;;5.85;3.02;;;;;;;10.07;91.63;97852.23;1770018;79;21026;-85
2022/10/07 02:57:37;;;;;;;5.25;3.27;;;;;;;10.07;91.74;97843.95;1767324;80;21376;-85
2022/10/07 03:00:04;;;;;;;5.75;3.65;;;;;;;10.09;91.86;97838.64;1773321;80;20963;-85
2022/10/07 03:02:37;;;;;;;6.08;3.40;;;;;;;10.07;91.88;97838.76;1765586;80;20958;-85
2022/10/07 03:05:04;;;;;;;5.40;3.42;;;;;;;10.10;91.89;97835.91;1770431;81;20978;-84
2022/10/07 03:07:29;;;;;;;5.37;3.60;;;;;;;10.12;91.67;97837.88;1785910;80;21079;-85
2022/10/07 03:09:55;;;;;;;6.00;3.45;;;;;;;10.16;91.58;97831.91;1767487;79;21365;-85
2022/10/07 03:12:22;;;;;;;4.58;3.20;;;;;;;10.15;91.68;97829.79;1770728;80;21010;-85
2022/10/07 03:14:48;;;;;;;4.65;3.12;;;;;;;10.16;91.72;97830.13;1773063;80;21013;-85
2022/10/07 03:17:16;;;;;;;11.25;4.03;;;;;;;10.17;91.52;97831.76;1773074;80;21010;-84
2022/10/07 03:19:42;;;;;;;5.22;2.70;;;;;;;10.19;91.40;97834.21;1768785;80;21421;-84
2022/10/07 03:22:09;;;;;;;5.40;3.05;;;;;;;10.20;91.53;97828.87;1773092;79;21010;-84
2022/10/07 03:24:35;;;;;;;5.15;3.02;;;;;;;10.23;91.38;97832.98;1767879;81;21069;-85
2022/10/07 03:27:01;;;;;;;4.15;3.17;;;;;;;10.19;91.24;97830.31;1773560;79;21040;-85
2022/10/07 03:29:29;;;;;;;4.75;3.33;;;;;;;10.19;91.50;97831.13;1773163;80;21317;-85
2022/10/07 03:31:54;;;;;;;5.03;3.10;;;;;;;10.19;91.54;97832.91;1772957;80;21287;-85
2022/10/07 03:34:22;;;;;;;3.58;3.10;;;;;;;10.20;91.53;97832.77;1767295;79;20970;-84
2022/10/07 03:36:47;;;;;;;4.28;3.27;;;;;;;10.21;91.51;97831.83;1770250;79;21017;-84
2022/10/07 03:39:13;;;;;;;5.25;3.20;;;;;;;10.21;91.46;97834.43;1768675;79;21049;-85
2022/10/07 03:41:40;;;;;;;5.08;3.35;;;;;;;10.21;91.35;97829.72;1767082;79;21333;-85
2022/10/07 03:44:06;;;;;;;6.15;3.27;;;;;;;10.21;91.48;97829.72;1768142;80;21976;-85
2022/10/07 03:46:32;;;;;;;4.62;3.50;;;;;;;10.20;91.63;97826.75;1771191;79;21047;-85
2022/10/07 03:48:57;;;;;;;4.65;3.37;;;;;;;10.20;91.66;97830.64;1768387;80;20966;-85
2022/10/07 03:51:23;;;;;;;4.90;3.90;;;;;;;10.19;91.63;97824.64;1767122;81;20986;-85
2022/10/07 03:53:49;;;;;;;4.35;3.45;;;;;;;10.20;91.91;97822.38;1767005;80;20958;-84
2022/10/07 03:56:14;;;;;;;5.75;3.98;;;;;;;10.21;92.05;97819.33;1770659;80;21042;-85
2022/10/07 03:58:40;;;;;;;6.00;3.77;;;;;;;10.20;91.99;97809.87;1791317;80;20958;-84
2022/10/07 04:01:08;;;;;;;4.95;3.52;;;;;;;10.21;92.22;97801.14;1771111;80;20923;-85
2022/10/07 04:03:34;;;;;;;4.15;3.45;;;;;;;10.22;92.08;97807.48;1767495;79;20982;-85
2022/10/07 04:06:00;;;;;;;6.03;4.03;;;;;;;10.26;91.99;97802.03;1770761;79;21377;-85
2022/10/07 04:08:27;;;;;;;6.22;4.17;;;;;;;10.27;91.99;97801.06;1770272;80;21007;-85
2022/10/07 04:10:53;;;;;;;6.35;4.28;;;;;;;10.26;91.95;97802.84;1768059;79;20987;-85
2022/10/07 04:13:19;;;;;;;8.50;4.28;;;;;;;10.25;92.08;97798.61;1767296;80;20963;-85
2022/10/07 04:15:45;;;;;;;5.55;3.70;;;;;;;10.23;92.25;97794.83;1771047;80;20950;-85
2022/10/07 04:18:10;;;;;;;6.33;4.25;;;;;;;10.20;92.36;97802.08;1769101;80;20979;-85
2022/10/07 04:20:37;;;;;;;4.53;4.10;;;;;;;10.14;92.81;97793.57;1769333;81;21309;-85
2022/10/07 04:23:03;;;;;;;6.97;4.20;;;;;;;10.10;93.05;97789.64;1771586;79;21042;-85
2022/10/07 04:25:32;;;;;;;6.15;4.53;;;;;;;10.08;93.36;97787.64;1769642;81;21472;-85
2022/10/07 04:28:00;;;;;;;6.37;4.65;;;;;;;10.06;93.57;97785.19;1772824;79;21041;-85
2022/10/07 04:30:27;;;;;;;5.60;5.03;;;;;;;10.04;93.84;97775.91;1771632;79;20928;-85
2022/10/07 04:32:53;;;;;;;5.33;4.83;;;;;;;10.04;94.02;97772.83;1739565;82;21318;-85
2022/10/07 04:35:20;;;;;;;5.55;4.95;;;;;;;10.07;94.34;97767.34;1770883;80;20973;-85
2022/10/07 04:37:50;;;;;;;5.62;5.12;;;;;;;10.09;94.52;97766.75;1736401;81;20969;-84
2022/10/07 04:40:16;;;;;;;6.15;5.55;;;;;;;10.12;94.38;97769.05;1751041;81;21373;-85
2022/10/07 04:45:25;;;;;;;6.45;5.47;;;;;;;10.14;94.49;97766.30;1757769;79;21014;-85
2022/10/07 04:47:53;;;;;;;6.45;4.87;;;;;;;10.15;94.33;97770.05;1768259;80;22125;-84
2022/10/07 04:50:19;;;;;;;6.55;4.65;;;;;;;10.15;94.33;97766.16;1749679;81;20964;-85
2022/10/07 04:52:45;;;;;;;5.83;5.03;;;;;;;10.14;94.30;97760.63;1765634;81;21032;-85
2022/10/07 04:55:11;;;;;;;6.87;4.80;;;;;;;10.13;94.50;97765.48;1758313;81;20994;-85
2022/10/07 04:57:37;;;;;;;6.12;4.72;;;;;;;10.14;94.54;97759.80;1769892;80;21014;-85
2022/10/07 05:00:04;;;;;;;5.72;4.58;;;;;;;10.14;94.57;97765.00;1756832;80;20970;-85
2022/10/07 05:02:30;;;;;;;5.45;4.92;;;;;;;10.14;94.73;97755.91;1738260;81;21377;-85
2022/10/07 05:04:56;;;;;;;5.40;4.67;;;;;;;10.12;94.69;97752.64;1771065;79;20919;-85
2022/10/07 05:07:21;;;;;;;6.60;4.60;;;;;;;10.13;94.80;97753.80;1768800;80;20967;-85
2022/10/07 05:09:47;;;;;;;5.60;4.83;;;;;;;10.12;94.87;97748.27;1772651;80;21085;-84
2022/10/07 05:12:13;;;;;;;6.03;5.28;;;;;;;10.13;94.97;97747.78;1772206;79;21020;-85
2022/10/07 05:14:41;;;;;;;6.03;5.45;;;;;;;10.13;95.08;97752.50;1773017;80;21042;-85
2022/10/07 05:17:07;;;;;;;6.25;5.00;;;;;;;10.15;95.21;97757.55;1768276;80;20988;-84
2022/10/07 05:19:33;;;;;;;7.75;4.92;;;;;;;10.14;95.20;97755.43;1771739;80;21278;-85
2022/10/07 05:21:58;;;;;;;6.08;5.47;;;;;;;10.15;95.31;97754.47;1770062;80;20950;-84
2022/10/07 05:24:24;;;;;;;5.62;5.12;;;;;;;10.17;95.31;97753.84;1772724;80;21333;-84
2022/10/07 05:26:50;;;;;;;5.85;5.33;;;;;;;10.20;95.39;97754.02;1766974;79;20939;-84
2022/10/07 05:29:16;;;;;;;6.42;5.00;;;;;;;10.21;95.52;97752.61;1770241;79;21436;-84
2022/10/07 05:31:42;;;;;;;6.33;5.35;;;;;;;10.23;95.73;97753.75;1771365;80;21078;-84
2022/10/07 05:34:07;;;;;;;5.47;4.95;;;;;;;10.21;95.82;97743.52;1796234;80;20928;-84
2022/10/07 05:36:34;;;;;;;5.60;4.97;;;;;;;10.23;96.01;97748.08;1750894;81;20937;-84
2022/10/07 05:38:59;;;;;;;5.90;5.30;;;;;;;10.29;96.04;97754.48;1751277;80;21444;-84
2022/10/07 05:41:27;;;;;;;7.78;5.67;;;;;;;10.33;95.69;97755.83;1769539;80;20986;-85
2022/10/07 05:43:53;;;;;;;6.47;5.17;;;;;;;10.34;95.74;97755.34;1762495;80;20954;-84
2022/10/07 05:46:22;;;;;;;5.33;4.62;;;;;;;10.35;95.74;97758.27;1773220;80;21066;-84
2022/10/07 05:48:50;;;;;;;5.45;4.95;;;;;;;10.36;95.71;97754.23;1767646;80;20974;-85
2022/10/07 05:51:17;;;;;;;6.22;5.62;;;;;;;10.37;95.59;97756.34;1740272;81;21042;-85
2022/10/07 05:53:43;;;;;;;6.15;5.03;;;;;;;10.40;95.77;97758.16;1740744;81;21401;-85
2022/10/07 05:56:11;;;;;;;5.47;4.97;;;;;;;10.43;95.59;97757.08;1746002;81;21050;-84
2022/10/07 05:58:37;;;;;;;5.15;4.65;;;;;;;10.46;95.56;97756.77;1742773;81;21037;-84
2022/10/07 06:01:05;;;;;;;5.83;5.22;;;;;;;10.46;95.65;97756.29;1761486;80;20951;-85
2022/10/07 06:03:32;;;;;;;6.22;5.62;;;;;;;10.47;95.50;97756.62;1767008;80;20963;-85
2022/10/07 06:05:58;;;;;;;5.85;5.25;;;;;;;10.48;95.56;97752.24;1766773;81;21037;-85
2022/10/07 06:08:24;;;;;;;5.22;4.72;;;;;;;10.48;95.63;97755.66;1768076;80;20987;-85
2022/10/07 06:13:34;;;;;;;5.95;4.97;;;;;;;10.49;95.80;97761.67;1773372;80;21385;-84
2022/10/07 06:16:07;;;;;;;5.60;5.10;;;;;;;10.48;95.83;97759.55;1771471;80;21439;-85
2022/10/07 06:18:35;;;;;;;6.17;5.23;;;;;;;10.48;95.87;97756.95;1784024;80;21019;-85
2022/10/07 06:21:01;;;;;;;7.08;4.80;;;;;;;10.48;96.03;97761.34;1769244;80;20971;-84
2022/10/07 06:23:27;;;;;;;5.30;4.80;;;;;;;10.48;96.30;97756.14;1773336;80;20957;-85
2022/10/07 06:26:02;;;;;;;7.20;5.53;;;;;;;10.48;96.23;97759.55;1777670;79;20981;-85
2022/10/07 06:28:35;;;;;;;5.55;4.95;;;;;;;10.50;96.25;97754.20;1777463;80;21057;-85
2022/10/07 06:31:10;;;;;;;5.83;5.25;;;;;;;10.50;96.47;97752.42;1787943;80;21087;-85
2022/10/07 06:33:36;;;;;;;5.20;4.70;;;;;;;10.50;96.62;97752.42;1742089;81;20947;-85
2022/10/07 06:36:06;;;;;;;4.95;4.55;;;;;;;10.53;96.88;97757.80;1746161;81;20919;-85
2022/10/07 06:38:32;;;;;;;6.20;5.30;;;;;;;10.53;97.11;97753.42;1746088;81;21109;-85
2022/10/07 06:41:00;;;;;;;5.87;5.33;;;;;;;10.55;97.25;97755.05;1766026;81;21078;-85
2022/10/07 06:43:30;;;;;;;5.25;4.75;;;;;;;10.58;97.52;97748.29;1745692;81;20998;-84
2022/10/07 06:46:00;;;;;;;5.83;5.25;;;;;;;10.61;97.42;97755.30;1745748;81;21526;-84
2022/10/07 06:48:30;;;;;;;6.37;5.78;;;;;;;10.66;97.59;97758.75;1745900;81;20959;-84
2022/10/07 06:50:57;;;;;;;6.37;5.78;;;;;;;10.69;97.58;97747.56;1745908;82;20994;-85
2022/10/07 06:53:23;;;;;;;5.12;4.72;;;;;;;10.72;97.80;97747.26;1751081;80;21385;-85
2022/10/07 06:55:53;;;;;;;5.95;5.35;;;;;;;10.76;97.96;97741.30;1773326;81;21029;-85
2022/10/07 06:58:20;;;;;;;5.70;5.10;;;;;;;10.79;97.94;97743.59;1737602;81;21034;-84
2022/10/07 07:00:49;;;;;;;4.72;4.33;;;;;;;10.82;98.13;97741.51;1746328;81;20971;-84
2022/10/07 07:03:16;;;;;;;5.10;4.65;;;;;;;10.88;98.08;97742.68;1746028;81;21010;-85
2022/10/07 07:05:42;;;;;;;5.10;4.65;;;;;;;10.94;98.42;97749.08;1745862;81;21306;-85
2022/10/07 07:08:07;;;;;;;5.45;4.25;;;;;;;10.97;98.72;97739.67;1746347;82;20947;-85
2022/10/07 07:10:37;;;;;;;5.03;4.25;;;;;;;11.03;98.66;97744.27;1722058;82;21495;-85
2022/10/07 07:13:06;;;;;;;5.37;4.80;;;;;;;11.08;98.99;97742.05;1721562;83;20934;-85
2022/10/07 07:15:33;;;;;;;5.37;4.85;;;;;;;11.12;99.11;97736.86;1714273;83;20951;-85
2022/10/07 07:17:58;;;;;;;6.00;5.40;;;;;;;11.16;99.29;97731.69;1726219;83;20970;-84
2022/10/07 07:20:24;;;;;;;6.35;5.75;;;;;;;11.22;99.36;97736.27;1719408;82;21113;-85
2022/10/07 07:22:51;;;;;;;6.28;5.67;;;;;;;11.26;99.67;97736.31;1728649;83;21010;-85
2022/10/07 07:25:18;;;;;;;9.45;6.35;;;;;;;11.31;99.86;97731.45;1729675;82;21072;-85
2022/10/07 07:27:47;;;;;;;6.10;5.42;;;;;;;11.36;99.81;97729.20;1717398;82;21033;-85
2022/10/07 07:30:13;;;;;;;5.97;5.45;;;;;;;11.42;100.00;97734.30;1715832;83;21018;-85
2022/10/07 07:32:39;;;;;;;5.97;5.47;;;;;;;11.47;100.00;97729.92;1716909;82;20990;-85
2022/10/07 07:35:06;;;;;;;5.55;5.05;;;;;;;11.53;100.00;97729.30;1720849;83;20920;-85
2022/10/07 07:37:32;;;;;;;6.87;5.50;;;;;;;11.59;100.00;97733.91;1719752;82;20978;-85
2022/10/07 07:39:58;;;;;;;5.35;4.85;;;;;;;11.62;100.00;97727.89;1728507;82;20983;-85
2022/10/07 07:42:26;;;;;;;5.92;5.05;;;;;;;11.70;100.00;97724.50;1728655;83;20958;-84
2022/10/07 07:44:52;;;;;;;6.15;5.53;;;;;;;11.77;100.00;97726.83;1716120;82;20976;-85
2022/10/07 07:47:17;;;;;;;5.85;5.25;;;;;;;11.82;100.00;97720.69;1716126;83;21382;-85
2022/10/07 07:49:43;;;;;;;8.03;5.10;;;;;;;11.90;100.00;97719.92;1716576;82;20927;-85
2022/10/07 07:52:09;;;;;;;4.95;4.37;;;;;;;11.95;100.00;97725.46;1728580;82;21374;-85
2022/10/07 07:54:40;;;;;;;4.90;4.30;;;;;;;11.99;100.00;97724.98;1721506;83;20946;-85
2022/10/07 07:57:05;;;;;;;5.30;4.55;;;;;;;12.05;100.00;97722.25;1727640;82;20979;-85
2022/10/07 07:59:31;;;;;;;5.97;5.37;;;;;;;12.11;100.00;97722.09;1705465;83;20940;-84
2022/10/07 08:01:57;;;;;;;9.15;6.40;;;;;;;12.16;100.00;97719.33;1728299;83;21043;-85
2022/10/07 08:04:23;;;;;;;7.40;5.35;;;;;;;12.25;100.00;97721.48;1720042;82;20982;-85
2022/10/07 08:06:50;;;;;;;6.62;5.35;;;;;;;12.35;100.00;97722.14;1720542;83;20955;-85
2022/10/07 08:09:15;;;;;;;4.95;4.45;;;;;;;12.43;100.00;97723.97;1739625;80;21038;-85
2022/10/07 08:11:44;;;;;;;5.08;4.08;;;;;;;12.49;100.00;97722.01;1764620;80;20986;-85
2022/10/07 08:14:14;;;;;;;7.40;4.42;;;;;;;12.54;100.00;97719.75;1768290;80;21429;-86
2022/10/07 08:16:42;;;;;;;5.25;4.80;;;;;;;12.58;100.00;97714.05;1766637;80;20943;-85
2022/10/07 08:19:08;;;;;;;5.97;4.15;;;;;;;12.62;100.00;97712.73;1764436;80;21371;-84
2022/10/07 08:21:34;;;;;;;5.37;4.67;;;;;;;12.68;100.00;97709.96;1765242;80;20979;-85
2022/10/07 08:24:02;;;;;;;5.83;3.80;;;;;;;12.72;100.00;97704.77;1768330;80;21453;-85
2022/10/07 08:26:32;;;;;;;6.92;5.15;;;;;;;12.78;100.00;97707.20;1746799;80;21043;-85
2022/10/07 08:28:59;;;;;;;6.05;5.55;;;;;;;12.82;100.00;97705.89;1765395;80;20967;-85
2022/10/07 08:31:26;;;;;;;6.20;5.20;;;;;;;12.90;100.00;97706.72;1767608;79;20966;-85
2022/10/07 08:33:52;;;;;;;8.38;5.65;;;;;;;13.00;100.00;97701.31;1771010;81;20986;-86
2022/10/07 08:36:20;;;;;;;7.78;5.08;;;;;;;13.08;100.00;97701.81;1716973;83;20971;-85
2022/10/07 08:38:46;;;;;;;6.22;5.10;;;;;;;13.11;100.00;97694.46;1770322;79;21003;-85
2022/10/07 08:41:23;;;;;;;7.12;5.08;;;;;;;13.18;100.00;97693.36;1773789;80;21417;-85
2022/10/07 08:43:49;;;;;;;5.72;5.22;;;;;;;13.26;100.00;97693.33;1767214;80;20947;-86
2022/10/07 08:46:19;;;;;;;7.17;5.35;;;;;;;13.34;100.00;97698.55;1739919;80;20947;-85
2022/10/07 08:48:52;;;;;;;5.90;5.28;;;;;;;13.43;100.00;97694.92;1769581;79;20991;-85
2022/10/07 08:51:33;;;;;;;5.78;5.17;;;;;;;13.52;100.00;97691.80;1765570;79;20959;-86
2022/10/07 08:53:59;;;;;;;6.28;4.75;;;;;;;13.63;100.00;97684.89;1750938;80;21345;-86
2022/10/07 08:56:25;;;;;;;5.55;4.42;;;;;;;13.72;100.00;97687.81;1771357;80;21025;-86
2022/10/07 08:59:20;;;;;;;7.30;4.78;;;;;;;13.79;99.81;97684.83;1777428;80;20973;-86
2022/10/07 09:01:58;;;;;;;6.33;5.00;;;;;;;13.90;99.79;97682.84;1772060;80;21014;-86
2022/10/07 09:05:05;;;;;;;6.03;4.75;;;;;;;14.07;99.45;97678.66;1769887;80;20954;-86
2022/10/07 09:07:44;;;;;;;5.62;4.67;;;;;;;14.19;99.43;97673.86;1771066;80;21409;-85
2022/10/07 09:10:31;;;;;;;9.68;6.47;;;;;;;14.31;99.54;97678.98;1774756;80;21042;-86
2022/10/07 09:13:10;;;;;;;6.62;5.83;;;;;;;14.44;98.95;97667.18;1776307;80;20978;-86
2022/10/07 09:15:45;;;;;;;8.45;6.15;;;;;;;14.58;99.04;97669.85;1777966;80;21464;-86
2022/10/07 09:18:24;;;;;;;10.48;7.85;;;;;;;14.68;98.93;97667.82;1776086;80;21348;-85
2022/10/07 09:20:53;;;;;;;9.58;8.23;;;;;;;14.78;98.13;97664.94;1766608;80;20959;-86
2022/10/07 09:23:29;;;;;;;11.22;9.65;;;;;;;14.95;98.63;97659.88;1737842;81;21025;-86
2022/10/07 09:25:55;;;;;;;8.73;7.87;;;;;;;15.13;97.58;97658.27;1779036;79;20966;-85
2022/10/07 09:28:28;;;;;;;10.23;7.35;;;;;;;15.27;97.35;97654.00;1776403;79;20989;-85
2022/10/07 09:30:59;;;;;;;8.20;5.97;;;;;;;15.37;97.22;97657.67;1776282;80;20983;-86
2022/10/07 09:33:25;;;;;;;11.38;7.50;;;;;;;15.44;97.12;97654.14;1799514;79;21362;-86
2022/10/07 09:35:56;;;;;;;9.28;6.95;;;;;;;15.50;95.80;97648.20;1750729;81;20994;-86
2022/10/07 09:38:37;;;;;;;11.08;7.62;;;;;;;15.60;96.02;97652.67;1767742;81;20985;-86
2022/10/07 09:41:30;;;;;;;8.55;6.28;;;;;;;15.70;94.60;97645.04;1749772;81;21008;-86
2022/10/07 09:44:12;;;;;;;8.60;6.40;;;;;;;15.79;95.81;97642.64;1790806;79;20961;-86
2022/10/07 09:46:58;;;;;;;6.75;5.72;;;;;;;15.87;94.86;97645.14;1787272;78;21321;-86
2022/10/07 09:49:32;;;;;;;8.28;5.83;;;;;;;15.94;93.76;97643.39;1795345;79;20970;-86
2022/10/07 09:52:05;;;;;;;6.30;5.70;;;;;;;16.01;94.77;97639.55;1776061;80;20974;-86
2022/10/07 09:54:34;;;;;;;6.08;5.15;;;;;;;16.08;92.42;97641.73;1799591;79;21050;-85
2022/10/07 09:57:02;;;;;;;8.00;5.80;;;;;;;16.15;92.48;97636.08;1800474;79;20945;-86
2022/10/07 09:59:35;;;;;;;6.58;5.53;;;;;;;16.23;93.15;97632.52;1748069;81;20994;-85
2022/10/07 10:02:20;;;;;;;7.45;5.50;;;;;;;16.30;94.20;97622.91;1771468;80;20943;-86
2022/10/07 10:04:54;;;;;;;6.35;5.12;;;;;;;16.40;91.34;97619.45;1747075;81;20951;-86
2022/10/07 10:07:32;;;;;;;6.25;5.65;;;;;;;16.52;89.89;97620.58;1761050;81;21349;-86
2022/10/07 10:10:05;;;;;;;8.30;5.40;;;;;;;16.60;91.05;97617.84;1774889;79;21050;-86
2022/10/07 10:12:36;;;;;;;9.30;5.90;;;;;;;16.67;90.84;97613.98;1737264;81;20999;-86
2022/10/07 10:15:03;;;;;;;7.12;5.60;;;;;;;16.71;90.62;97610.77;1741170;81;21345;-87
2022/10/07 10:17:37;;;;;;;6.87;5.95;;;;;;;16.77;90.60;97605.28;1716216;81;20955;-83
2022/10/07 10:20:35;;;;;;;6.92;5.55;;;;;;;16.82;88.89;97609.95;1764073;80;20955;-85
2022/10/07 10:23:22;;;;;;;7.42;5.45;;;;;;;16.93;87.91;97608.13;1771588;80;21018;-84
2022/10/07 10:27:03;;;;;;;5.85;4.67;;;;;;;17.05;87.82;97607.87;1772410;80;21214;-86
2022/10/07 10:29:00;;;;;;;5.87;3.55;;;;;;;17.18;88.24;97600.59;1711680;81;20979;-86
2022/10/07 10:31:52;;;;;;;3.30;3.00;;;;;;;17.35;85.60;97596.63;1770898;80;21082;-86
2022/10/07 10:34:34;;;;;;;5.10;3.12;;;;;;;17.48;84.63;97590.64;1755804;80;21189;-84
2022/10/07 10:37:20;;;;;;;3.62;3.30;;;;;;;17.53;84.19;97575.09;1738829;81;20925;-85
2022/10/07 10:39:57;;;;;;;3.10;2.80;;;;;;;17.71;83.77;97583.27;1749038;81;21070;-86
2022/10/07 10:42:47;;;;;;;5.12;3.70;;;;;;;17.80;82.23;97574.71;1748739;81;21035;-85
2022/10/07 10:45:35;;;;;;;7.28;4.97;;;;;;;17.89;82.24;97574.82;1764833;79;20944;-86
2022/10/07 10:48:30;;;;;;;5.25;3.85;;;;;;;17.99;83.57;97569.49;1740853;81;21042;-86
2022/10/07 10:51:44;;;;;;;3.30;3.00;;;;;;;18.05;84.32;97565.25;1772788;80;21038;-86
2022/10/07 10:54:30;;;;;;;4.58;3.17;;;;;;;18.13;79.52;97564.27;1736797;82;21382;-86
2022/10/07 10:57:31;;;;;;;4.92;3.52;;;;;;;18.24;78.78;97561.05;1738940;82;21067;-85
2022/10/07 11:00:16;;;;;;;3.55;2.60;;;;;;;18.32;79.22;97556.08;1722898;82;20935;-86
2022/10/07 11:02:58;;;;;;;3.42;3.12;;;;;;;18.41;77.67;97557.51;1704999;83;20992;-85
2022/10/07 11:05:37;;;;;;;4.97;3.17;;;;;;;18.49;77.53;97552.03;1714524;83;20997;-85
2022/10/07 11:08:19;;;;;;;5.10;3.70;;;;;;;18.59;78.10;97547.17;1734978;82;21023;-85
2022/10/07 11:11:01;;;;;;;3.72;2.80;;;;;;;18.69;77.42;97536.24;1711149;83;20975;-86
2022/10/07 11:13:54;;;;;;;4.78;3.20;;;;;;;18.76;77.41;97535.74;1702398;83;21046;-85
2022/10/07 11:16:31;;;;;;;5.03;3.58;;;;;;;18.83;76.69;97539.16;1685633;84;20918;-86
2022/10/07 11:19:01;;;;;;;4.30;3.30;;;;;;;18.88;75.97;97535.42;1741656;82;21325;-86
2022/10/07 11:21:40;;;;;;;3.25;2.95;;;;;;;18.93;75.25;97531.66;1731504;82;20947;-86
2022/10/07 11:24:36;;;;;;;4.80;4.37;;;;;;;19.00;74.58;97524.53;1729857;81;20986;-84
2022/10/07 11:27:15;;;;;;;6.87;4.10;;;;;;;19.10;74.96;97517.02;1699099;84;20942;-85
2022/10/07 11:30:08;;;;;;;3.65;3.22;;;;;;;19.18;74.17;97515.45;1726409;81;21019;-86
2022/10/07 11:32:58;;;;;;;3.45;2.95;;;;;;;19.23;73.83;97513.53;1691829;83;20991;-86
2022/10/07 11:35:33;;;;;;;3.95;3.15;;;;;;;19.30;73.64;97503.76;1707437;83;21357;-86
2022/10/07 11:38:13;;;;;;;4.00;3.10;;;;;;;19.39;74.50;97503.02;1719458;82;21041;-86
2022/10/07 11:41:00;;;;;;;4.15;3.35;;;;;;;19.42;72.97;97493.37;1716816;82;20974;-87
2022/10/07 11:43:45;;;;;;;3.60;3.30;;;;;;;19.53;73.85;97492.72;1712643;82;21376;-86
2022/10/07 11:46:28;;;;;;;4.85;4.25;;;;;;;19.60;72.99;97490.87;1686661;84;20958;-86
2022/10/07 11:49:05;;;;;;;5.60;4.42;;;;;;;19.60;72.25;97487.42;1725849;81;20987;-85
2022/10/07 11:51:38;;;;;;;5.53;4.35;;;;;;;19.67;72.88;97485.03;1729758;82;21050;-86
2022/10/07 11:54:07;;;;;;;4.30;3.90;;;;;;;19.75;72.20;97475.56;1720217;82;20991;-86
2022/10/07 11:56:50;;;;;;;5.22;3.70;;;;;;;19.79;71.81;97466.71;1728752;83;21026;-86
2022/10/07 11:59:42;;;;;;;7.35;3.58;;;;;;;19.83;70.99;97466.58;1706008;83;21078;-86